Time,TemperatureF,DewpointF,PressureIn,WindDirection,WindDirectionDegrees,WindSpeedMPH,WindSpeedGustMPH,Humidity,HourlyPrecipIn,Conditions,Clouds,dailyrainin,SoftwareType,DateUTC
2013-03-26 00:04:00,38.7,22.1,30.39,NW,318,0.0,0.0,51,0.00,,,0.00,meteohub,2013-03-26 05:04:00,
2013-03-26 00:10:00,38.5,21.9,30.39,NW,318,0.0,0.0,51,0.00,,,0.00,meteohub,2013-03-26 05:10:00,
2013-03-26 00:15:00,38.1,21.6,30.39,NW,318,0.0,0.0,51,0.00,,,0.00,meteohub,2013-03-26 05:15:00,
2013-03-26 00:20:00,37.9,21.4,30.39,NW,318,0.0,0.0,51,0.00,,,0.00,meteohub,2013-03-26 05:20:00,
2013-03-26 00:26:00,37.9,21.4,30.39,NW,318,0.0,0.0,51,0.00,,,0.00,meteohub,2013-03-26 05:26:00,
2013-03-26 00:31:00,37.8,21.2,30.39,NW,318,0.0,0.0,51,0.00,,,0.00,meteohub,2013-03-26 05:31:00,
2013-03-26 00:36:00,37.8,21.2,30.39,NW,318,0.0,0.0,51,0.00,,,0.00,meteohub,2013-03-26 05:36:00,
2013-03-26 00:41:00,37.6,21.0,30.38,NW,318,0.0,0.0,51,0.00,,,0.00,meteohub,2013-03-26 05:41:00,
2013-03-26 00:43:00,37.6,21.0,30.38,NW,318,0.0,0.0,51,0.00,,,0.00,meteohub,2013-03-26 05:43:00,
2013-03-26 00:47:00,37.6,21.6,30.38,NW,318,0.0,0.0,52,0.00,,,0.00,meteohub,2013-03-26 05:47:00,
2013-03-26 00:52:00,37.4,21.9,30.38,NW,318,0.0,0.0,53,0.00,,,0.00,meteohub,2013-03-26 05:52:00,
2013-03-26 00:59:00,37.2,23.0,30.38,NW,318,0.0,0.0,56,0.00,,,0.00,meteohub,2013-03-26 05:59:00,
2013-03-26 01:04:00,37.2,23.4,30.38,NW,318,0.0,0.0,57,0.00,,,0.00,meteohub,2013-03-26 06:04:00,
2013-03-26 01:09:00,37.2,23.0,30.38,NW,318,0.0,0.0,56,0.00,,,0.00,meteohub,2013-03-26 06:09:00,
2013-03-26 01:15:00,37.0,21.9,30.38,NW,318,0.0,0.0,54,0.00,,,0.00,meteohub,2013-03-26 06:15:00,
2013-03-26 01:20:00,37.0,21.6,30.38,NW,318,0.0,0.0,53,0.00,,,0.00,meteohub,2013-03-26 06:20:00,
2013-03-26 01:25:00,37.0,21.6,30.38,NW,318,0.0,0.0,53,0.00,,,0.00,meteohub,2013-03-26 06:25:00,
2013-03-26 01:31:00,37.0,21.0,30.38,NW,318,0.0,0.0,52,0.00,,,0.00,meteohub,2013-03-26 06:31:00,
2013-03-26 01:36:00,36.9,20.8,30.38,NW,318,0.0,0.0,52,0.00,,,0.00,meteohub,2013-03-26 06:36:00,
2013-03-26 01:41:00,36.7,21.2,30.38,NW,318,0.0,0.0,53,0.00,,,0.00,meteohub,2013-03-26 06:41:00,
2013-03-26 01:47:00,36.5,20.5,30.38,NW,318,0.0,0.0,52,0.00,,,0.00,meteohub,2013-03-26 06:47:00,
2013-03-26 01:52:00,36.3,20.8,30.38,NW,318,0.0,0.0,53,0.00,,,0.00,meteohub,2013-03-26 06:52:00,
2013-03-26 01:57:00,36.3,21.2,30.38,NW,318,0.0,0.0,54,0.00,,,0.00,meteohub,2013-03-26 06:57:00,
2013-03-26 02:02:00,36.0,21.4,30.38,NW,318,0.0,0.0,55,0.00,,,0.00,meteohub,2013-03-26 07:02:00,
2013-03-26 02:07:00,35.8,22.1,30.38,NW,318,0.0,0.0,57,0.00,,,0.00,meteohub,2013-03-26 07:07:00,
2013-03-26 02:13:00,35.6,22.6,30.38,NW,318,0.0,0.0,59,0.00,,,0.00,meteohub,2013-03-26 07:13:00,
2013-03-26 02:18:00,35.1,22.6,30.38,NW,318,0.0,0.0,60,0.00,,,0.00,meteohub,2013-03-26 07:18:00,
2013-03-26 02:23:00,34.7,23.0,30.38,NW,318,0.0,0.0,62,0.00,,,0.00,meteohub,2013-03-26 07:23:00,
2013-03-26 02:28:00,34.7,23.4,30.38,NW,318,0.0,0.0,63,0.00,,,0.00,meteohub,2013-03-26 07:28:00,
2013-03-26 02:34:00,34.5,23.2,30.38,NW,318,0.0,0.0,63,0.00,,,0.00,meteohub,2013-03-26 07:34:00,
2013-03-26 02:39:00,34.5,23.2,30.38,NW,318,0.0,0.0,63,0.00,,,0.00,meteohub,2013-03-26 07:39:00,
2013-03-26 02:44:00,34.5,22.5,30.38,NW,318,0.0,0.0,61,0.00,,,0.00,meteohub,2013-03-26 07:44:00,
2013-03-26 02:49:00,34.5,22.5,30.38,NW,318,0.0,0.0,61,0.00,,,0.00,meteohub,2013-03-26 07:49:00,
2013-03-26 02:55:00,34.3,22.3,30.38,NW,318,0.0,0.0,61,0.00,,,0.00,meteohub,2013-03-26 07:55:00,
2013-03-26 03:00:00,34.2,22.8,30.38,NW,318,0.0,0.0,63,0.00,,,0.00,meteohub,2013-03-26 08:00:00,
2013-03-26 03:05:00,34.2,23.5,30.38,NW,318,0.0,0.0,65,0.00,,,0.00,meteohub,2013-03-26 08:05:00,
2013-03-26 03:10:00,34.0,24.3,30.38,NW,318,0.0,0.0,67,0.00,,,0.00,meteohub,2013-03-26 08:10:00,
2013-03-26 03:15:00,34.0,24.6,30.38,NW,318,0.0,0.0,68,0.00,,,0.00,meteohub,2013-03-26 08:15:00,
2013-03-26 03:20:00,33.8,25.3,30.38,NW,318,0.0,0.0,71,0.00,,,0.00,meteohub,2013-03-26 08:20:00,
2013-03-26 03:26:00,33.8,25.7,30.38,NW,318,0.0,0.0,72,0.00,,,0.00,meteohub,2013-03-26 08:26:00,
2013-03-26 03:31:00,33.6,25.5,30.38,NW,318,0.0,0.0,72,0.00,,,0.00,meteohub,2013-03-26 08:31:00,
2013-03-26 03:37:00,33.4,25.3,30.38,NW,318,0.0,0.0,72,0.00,,,0.00,meteohub,2013-03-26 08:37:00,
2013-03-26 03:42:00,33.3,26.2,30.38,NW,318,0.0,0.0,75,0.00,,,0.00,meteohub,2013-03-26 08:42:00,
2013-03-26 03:47:00,32.7,26.1,30.38,NW,318,0.0,0.0,76,0.00,,,0.00,meteohub,2013-03-26 08:47:00,
2013-03-26 03:52:00,32.4,25.9,30.38,NW,318,0.0,0.0,77,0.00,,,0.00,meteohub,2013-03-26 08:52:00,
2013-03-26 03:57:00,32.2,26.1,30.38,NW,318,0.0,0.0,78,0.00,,,0.00,meteohub,2013-03-26 08:57:00,
2013-03-26 04:03:00,32.0,25.9,30.38,NW,318,0.0,0.0,78,0.00,,,0.00,meteohub,2013-03-26 09:03:00,
2013-03-26 04:08:00,31.8,26.1,30.38,NW,318,0.0,0.0,79,0.00,,,0.00,meteohub,2013-03-26 09:08:00,
2013-03-26 04:14:00,31.8,26.6,30.38,NW,318,0.0,0.0,81,0.00,,,0.00,meteohub,2013-03-26 09:14:00,
2013-03-26 04:19:00,31.8,26.6,30.38,NW,318,0.0,0.0,81,0.00,,,0.00,meteohub,2013-03-26 09:19:00,
2013-03-26 04:24:00,31.6,27.1,30.38,NW,318,0.0,0.0,83,0.00,,,0.00,meteohub,2013-03-26 09:24:00,
2013-03-26 04:30:00,31.5,27.1,30.38,NW,318,0.0,0.0,84,0.00,,,0.00,meteohub,2013-03-26 09:30:00,
2013-03-26 04:35:00,31.3,27.0,30.38,NW,318,0.0,0.0,84,0.00,,,0.00,meteohub,2013-03-26 09:35:00,
2013-03-26 04:40:00,31.3,26.8,30.38,NW,318,0.0,0.0,83,0.00,,,0.00,meteohub,2013-03-26 09:40:00,
2013-03-26 04:45:00,31.3,26.8,30.38,NW,318,0.0,0.0,83,0.00,,,0.00,meteohub,2013-03-26 09:45:00,
2013-03-26 04:51:00,31.5,26.6,30.39,NW,318,0.0,0.0,82,0.00,,,0.00,meteohub,2013-03-26 09:51:00,
2013-03-26 04:56:00,31.5,26.6,30.39,NW,318,0.0,0.0,82,0.00,,,0.00,meteohub,2013-03-26 09:56:00,
2013-03-26 05:02:00,31.3,26.8,30.39,NW,318,0.0,0.0,83,0.00,,,0.00,meteohub,2013-03-26 10:02:00,
2013-03-26 05:07:00,31.3,26.8,30.39,NW,318,0.0,0.0,83,0.00,,,0.00,meteohub,2013-03-26 10:07:00,
2013-03-26 05:12:00,30.9,26.6,30.40,NW,318,0.0,0.0,84,0.00,,,0.00,meteohub,2013-03-26 10:12:00,
2013-03-26 05:17:00,30.9,26.4,30.39,NW,318,0.0,0.0,83,0.00,,,0.00,meteohub,2013-03-26 10:17:00,
2013-03-26 05:22:00,31.3,26.1,30.40,NW,318,0.0,0.0,81,0.00,,,0.00,meteohub,2013-03-26 10:22:00,
2013-03-26 05:27:00,31.3,25.9,30.40,NW,318,0.0,0.0,80,0.00,,,0.00,meteohub,2013-03-26 10:27:00,
2013-03-26 05:32:00,31.5,25.3,30.40,NW,318,0.0,0.0,78,0.00,,,0.00,meteohub,2013-03-26 10:32:00,
2013-03-26 05:38:00,31.3,25.0,30.40,NW,318,0.0,0.0,77,0.00,,,0.00,meteohub,2013-03-26 10:38:00,
2013-03-26 05:43:00,31.3,25.0,30.40,NW,318,0.0,0.0,77,0.00,,,0.00,meteohub,2013-03-26 10:43:00,
2013-03-26 05:48:00,31.3,25.0,30.40,NW,318,0.0,0.0,77,0.00,,,0.00,meteohub,2013-03-26 10:48:00,
2013-03-26 05:53:00,31.3,23.7,30.40,NW,318,0.0,0.0,73,0.00,,,0.00,meteohub,2013-03-26 10:53:00,
2013-03-26 05:59:00,31.6,24.6,30.40,NW,318,0.0,0.0,75,0.00,,,0.00,meteohub,2013-03-26 10:59:00,
2013-03-26 06:04:00,32.2,25.5,30.40,NW,318,0.0,0.0,76,0.00,,,0.00,meteohub,2013-03-26 11:04:00,
2013-03-26 06:09:00,32.2,23.9,30.41,NW,318,0.0,0.0,71,0.00,,,0.00,meteohub,2013-03-26 11:09:00,
2013-03-26 06:14:00,31.8,23.2,30.41,NW,318,0.0,0.0,70,0.00,,,0.00,meteohub,2013-03-26 11:14:00,
2013-03-26 06:20:00,31.6,23.0,30.41,NW,318,0.0,0.0,70,0.00,,,0.00,meteohub,2013-03-26 11:20:00,
2013-03-26 06:25:00,31.6,22.3,30.41,NW,318,0.0,0.0,68,0.00,,,0.00,meteohub,2013-03-26 11:25:00,
2013-03-26 06:30:00,31.8,22.5,30.42,NW,318,0.0,0.0,68,0.00,,,0.00,meteohub,2013-03-26 11:30:00,
2013-03-26 06:35:00,31.6,22.3,30.42,NW,318,0.0,0.0,68,0.00,,,0.00,meteohub,2013-03-26 11:35:00,
2013-03-26 06:40:00,31.6,22.6,30.42,NW,318,0.0,0.0,69,0.00,,,0.00,meteohub,2013-03-26 11:40:00,
2013-03-26 06:45:00,31.5,22.1,30.42,NW,318,0.0,0.0,68,0.00,,,0.00,meteohub,2013-03-26 11:45:00,
2013-03-26 06:51:00,31.3,22.6,30.43,NW,318,0.0,0.0,70,0.00,,,0.00,meteohub,2013-03-26 11:51:00,
2013-03-26 06:57:00,31.1,22.5,30.43,NW,318,0.0,0.0,70,0.00,,,0.00,meteohub,2013-03-26 11:57:00,
2013-03-26 07:02:00,30.9,22.6,30.43,NW,318,0.0,0.0,71,0.00,,,0.00,meteohub,2013-03-26 12:02:00,
2013-03-26 07:07:00,30.7,22.8,30.44,NW,318,0.0,0.0,72,0.00,,,0.00,meteohub,2013-03-26 12:07:00,
2013-03-26 07:12:00,30.6,23.5,30.44,NW,318,0.0,0.0,75,0.00,,,0.00,meteohub,2013-03-26 12:12:00,
2013-03-26 07:18:00,30.4,23.7,30.44,NW,318,0.0,0.0,76,0.00,,,0.00,meteohub,2013-03-26 12:18:00,
2013-03-26 07:23:00,30.2,23.5,30.44,NW,318,0.0,0.0,76,0.00,,,0.00,meteohub,2013-03-26 12:23:00,
2013-03-26 07:28:00,30.0,23.7,30.45,NW,318,0.0,0.0,77,0.00,,,0.00,meteohub,2013-03-26 12:28:00,
2013-03-26 07:33:00,29.8,23.9,30.45,NW,318,0.0,0.0,78,0.00,,,0.00,meteohub,2013-03-26 12:33:00,
2013-03-26 07:39:00,29.8,23.9,30.45,NW,318,0.0,0.0,78,0.00,,,0.00,meteohub,2013-03-26 12:39:00,
2013-03-26 07:44:00,30.0,24.6,30.46,NW,318,0.0,0.0,80,0.00,,,0.00,meteohub,2013-03-26 12:44:00,
2013-03-26 07:49:00,30.0,24.6,30.46,NW,318,0.0,0.0,80,0.00,,,0.00,meteohub,2013-03-26 12:49:00,
2013-03-26 07:54:00,30.2,24.8,30.46,NW,318,0.0,0.0,80,0.00,,,0.00,meteohub,2013-03-26 12:54:00,
2013-03-26 07:59:00,30.4,24.6,30.46,NW,318,0.0,0.0,79,0.00,,,0.00,meteohub,2013-03-26 12:59:00,
2013-03-26 08:04:00,30.6,24.4,30.46,NW,318,0.0,0.0,78,0.00,,,0.00,meteohub,2013-03-26 13:04:00,
2013-03-26 08:09:00,31.1,25.0,30.47,NW,318,0.0,0.0,78,0.00,,,0.00,meteohub,2013-03-26 13:09:00,
2013-03-26 08:14:00,31.6,25.5,30.47,NW,318,0.0,0.0,78,0.00,,,0.00,meteohub,2013-03-26 13:14:00,
2013-03-26 08:20:00,32.4,26.2,30.47,NW,318,0.0,0.0,78,0.00,,,0.00,meteohub,2013-03-26 13:20:00,
2013-03-26 08:25:00,32.9,26.2,30.47,NW,318,0.0,0.0,76,0.00,,,0.00,meteohub,2013-03-26 13:25:00,
2013-03-26 08:30:00,33.3,24.8,30.47,NW,318,0.0,0.0,71,0.00,,,0.00,meteohub,2013-03-26 13:30:00,
2013-03-26 08:36:00,33.4,24.4,30.48,NW,318,0.0,0.0,69,0.00,,,0.00,meteohub,2013-03-26 13:36:00,
2013-03-26 08:41:00,34.2,24.1,30.48,NW,318,1.0,0.0,66,0.00,,,0.00,meteohub,2013-03-26 13:41:00,
2013-03-26 08:47:00,34.5,24.3,30.48,NW,318,0.0,0.0,66,0.00,,,0.00,meteohub,2013-03-26 13:47:00,
2013-03-26 08:52:00,35.1,25.2,30.49,NW,318,1.0,0.0,67,0.00,,,0.00,meteohub,2013-03-26 13:52:00,
2013-03-26 08:57:00,35.2,24.6,30.49,NW,318,2.0,0.0,65,0.00,,,0.00,meteohub,2013-03-26 13:57:00,
2013-03-26 09:02:00,35.8,24.8,30.49,NW,318,0.0,0.0,64,0.00,,,0.00,meteohub,2013-03-26 14:02:00,
2013-03-26 09:07:00,36.1,25.5,30.50,NW,318,0.0,0.0,65,0.00,,,0.00,meteohub,2013-03-26 14:07:00,
2013-03-26 09:12:00,36.9,25.9,30.50,NW,318,0.0,0.0,64,0.00,,,0.00,meteohub,2013-03-26 14:12:00,
2013-03-26 09:17:00,37.2,25.3,30.50,NW,318,0.0,2.0,62,0.00,,,0.00,meteohub,2013-03-26 14:17:00,
2013-03-26 09:22:00,37.6,24.1,30.50,NNE,17,0.0,2.0,58,0.00,,,0.00,meteohub,2013-03-26 14:22:00,
2013-03-26 09:28:00,37.9,25.0,30.50,North,11,1.0,2.0,59,0.00,,,0.00,meteohub,2013-03-26 14:28:00,
2013-03-26 09:33:00,38.7,24.8,30.50,NE,44,0.0,2.0,57,0.00,,,0.00,meteohub,2013-03-26 14:33:00,
2013-03-26 09:38:00,38.8,24.4,30.50,North,5,1.0,2.0,56,0.00,,,0.00,meteohub,2013-03-26 14:38:00,
2013-03-26 09:44:00,39.0,24.3,30.50,ENE,70,2.0,2.0,55,0.00,,,0.00,meteohub,2013-03-26 14:44:00,
2013-03-26 09:49:00,39.6,24.3,30.50,NE,48,0.0,2.0,54,0.00,,,0.00,meteohub,2013-03-26 14:49:00,
2013-03-26 09:55:00,39.6,23.9,30.50,NE,55,1.0,2.0,53,0.00,,,0.00,meteohub,2013-03-26 14:55:00,
2013-03-26 10:00:00,39.9,23.2,30.49,NNE,29,0.0,2.0,51,0.00,,,0.00,meteohub,2013-03-26 15:00:00,
2013-03-26 10:05:00,40.3,24.1,30.49,ENE,76,2.0,9.0,52,0.00,,,0.00,meteohub,2013-03-26 15:05:00,
2013-03-26 10:11:00,40.6,23.5,30.50,NE,42,2.0,9.0,50,0.00,,,0.00,meteohub,2013-03-26 15:11:00,
2013-03-26 10:17:00,41.2,23.0,30.50,NNW,328,1.0,9.0,48,0.00,,,0.00,meteohub,2013-03-26 15:17:00,
2013-03-26 10:22:00,41.2,23.9,30.50,NE,39,1.0,9.0,50,0.00,,,0.00,meteohub,2013-03-26 15:22:00,
2013-03-26 10:27:00,41.5,23.4,30.50,NE,35,1.0,9.0,48,0.00,,,0.00,meteohub,2013-03-26 15:27:00,
2013-03-26 10:32:00,41.5,22.3,30.50,NNW,345,0.0,9.0,46,0.00,,,0.00,meteohub,2013-03-26 15:32:00,
2013-03-26 10:37:00,41.5,22.8,30.50,NE,53,0.0,9.0,47,0.00,,,0.00,meteohub,2013-03-26 15:37:00,
2013-03-26 10:42:00,41.5,24.3,30.50,SE,127,1.0,9.0,50,0.00,,,0.00,meteohub,2013-03-26 15:42:00,
2013-03-26 10:47:00,42.3,22.5,30.50,North,0,1.0,9.0,45,0.00,,,0.00,meteohub,2013-03-26 15:47:00,
2013-03-26 10:52:00,42.4,22.6,30.50,NW,312,3.0,9.0,45,0.00,,,0.00,meteohub,2013-03-26 15:52:00,
2013-03-26 10:57:00,42.3,23.0,30.50,NW,317,3.0,5.0,46,0.00,,,0.00,meteohub,2013-03-26 15:57:00,
2013-03-26 11:03:00,42.3,21.9,30.50,North,355,2.0,5.0,44,0.00,,,0.00,meteohub,2013-03-26 16:03:00,
2013-03-26 11:08:00,43.2,24.8,30.49,West,259,2.0,5.0,48,0.00,,,0.00,meteohub,2013-03-26 16:08:00,
2013-03-26 11:13:00,43.3,24.4,30.49,NNW,341,3.0,5.0,47,0.00,,,0.00,meteohub,2013-03-26 16:13:00,
2013-03-26 11:18:00,44.2,23.2,30.49,NW,314,0.0,5.0,43,0.00,,,0.00,meteohub,2013-03-26 16:18:00,
2013-03-26 11:23:00,44.6,22.3,30.49,NNW,327,1.0,5.0,41,0.00,,,0.00,meteohub,2013-03-26 16:23:00,
2013-03-26 11:29:00,45.1,21.7,30.49,NNW,348,3.0,5.0,39,0.00,,,0.00,meteohub,2013-03-26 16:29:00,
2013-03-26 11:34:00,45.1,22.3,30.49,NNE,32,0.0,5.0,40,0.00,,,0.00,meteohub,2013-03-26 16:34:00,
2013-03-26 11:39:00,45.1,23.9,30.48,East,90,0.0,5.0,43,0.00,,,0.00,meteohub,2013-03-26 16:39:00,
2013-03-26 11:44:00,45.9,25.7,30.48,NW,315,5.0,6.0,45,0.00,,,0.00,meteohub,2013-03-26 16:44:00,
2013-03-26 11:49:00,46.0,25.9,30.48,North,11,0.0,6.0,45,0.00,,,0.00,meteohub,2013-03-26 16:49:00,
2013-03-26 11:54:00,47.8,25.9,30.48,WNW,296,7.0,7.0,42,0.00,,,0.00,meteohub,2013-03-26 16:54:00,
2013-03-26 12:00:00,47.7,27.9,30.47,WNW,286,2.0,6.0,46,0.00,,,0.00,meteohub,2013-03-26 17:00:00,
2013-03-26 12:05:00,47.5,23.2,30.47,NNW,346,0.0,6.0,38,0.00,,,0.00,meteohub,2013-03-26 17:05:00,
2013-03-26 12:11:00,47.7,22.6,30.47,NNW,348,0.0,6.0,37,0.00,,,0.00,meteohub,2013-03-26 17:11:00,
2013-03-26 12:16:00,48.6,22.8,30.47,NNW,342,2.0,6.0,36,0.00,,,0.00,meteohub,2013-03-26 17:16:00,
2013-03-26 12:22:00,48.4,23.9,30.46,North,10,0.0,6.0,38,0.00,,,0.00,meteohub,2013-03-26 17:22:00,
2013-03-26 12:27:00,48.0,25.5,30.46,NNE,32,2.0,6.0,41,0.00,,,0.00,meteohub,2013-03-26 17:27:00,
2013-03-26 12:32:00,49.1,24.6,30.45,NNE,15,0.0,6.0,38,0.00,,,0.00,meteohub,2013-03-26 17:32:00,
2013-03-26 12:37:00,49.5,24.3,30.45,NE,41,2.0,6.0,37,0.00,,,0.00,meteohub,2013-03-26 17:37:00,
2013-03-26 12:42:00,51.1,27.0,30.45,NW,306,3.0,4.0,39,0.00,,,0.00,meteohub,2013-03-26 17:42:00,
2013-03-26 12:47:00,50.5,23.9,30.45,North,0,3.0,4.0,35,0.00,,,0.00,meteohub,2013-03-26 17:47:00,
2013-03-26 12:52:00,49.8,22.6,30.45,NE,54,1.0,4.0,34,0.00,,,0.00,meteohub,2013-03-26 17:52:00,
2013-03-26 12:57:00,50.2,23.5,30.45,ENE,74,3.0,4.0,35,0.00,,,0.00,meteohub,2013-03-26 17:57:00,
2013-03-26 13:02:00,50.7,27.9,30.44,West,269,4.0,4.0,41,0.00,,,0.00,meteohub,2013-03-26 18:02:00,
2013-03-26 13:07:00,52.9,30.9,30.44,SW,226,1.0,4.0,43,0.00,,,0.00,meteohub,2013-03-26 18:07:00,
2013-03-26 13:13:00,52.2,25.3,30.44,WNW,289,3.0,4.0,35,0.00,,,0.00,meteohub,2013-03-26 18:13:00,
2013-03-26 13:18:00,53.2,27.7,30.44,West,278,2.0,4.0,37,0.00,,,0.00,meteohub,2013-03-26 18:18:00,
2013-03-26 13:23:00,53.2,27.0,30.43,NW,317,3.0,4.0,36,0.00,,,0.00,meteohub,2013-03-26 18:23:00,
2013-03-26 13:29:00,52.3,24.1,30.43,East,82,0.0,4.0,33,0.00,,,0.00,meteohub,2013-03-26 18:29:00,
2013-03-26 13:34:00,54.0,28.2,30.43,NNW,343,6.0,9.0,37,0.00,,,0.00,meteohub,2013-03-26 18:34:00,
2013-03-26 13:39:00,53.6,29.3,30.43,West,275,0.0,9.0,39,0.00,,,0.00,meteohub,2013-03-26 18:39:00,
2013-03-26 13:44:00,54.1,25.7,30.42,NNW,327,2.0,9.0,33,0.00,,,0.00,meteohub,2013-03-26 18:44:00,
2013-03-26 13:49:00,53.6,24.4,30.42,NNW,340,6.0,9.0,32,0.00,,,0.00,meteohub,2013-03-26 18:49:00,
2013-03-26 13:55:00,53.2,24.8,30.42,NE,47,1.0,9.0,33,0.00,,,0.00,meteohub,2013-03-26 18:55:00,
2013-03-26 14:00:00,53.1,23.9,30.41,NE,49,2.0,9.0,32,0.00,,,0.00,meteohub,2013-03-26 19:00:00,
2013-03-26 14:05:00,52.7,23.7,30.41,NNW,344,2.0,9.0,32,0.00,,,0.00,meteohub,2013-03-26 19:05:00,
2013-03-26 14:10:00,54.1,28.4,30.40,SE,144,0.0,9.0,37,0.00,,,0.00,meteohub,2013-03-26 19:10:00,
2013-03-26 14:16:00,54.9,24.8,30.40,NW,321,4.0,9.0,31,0.00,,,0.00,meteohub,2013-03-26 19:16:00,
2013-03-26 14:21:00,54.9,29.1,30.40,NW,317,0.0,9.0,37,0.00,,,0.00,meteohub,2013-03-26 19:21:00,
2013-03-26 14:26:00,54.3,23.5,30.40,NE,42,2.0,9.0,30,0.00,,,0.00,meteohub,2013-03-26 19:26:00,
2013-03-26 14:31:00,54.9,25.5,30.40,NNW,331,3.0,9.0,32,0.00,,,0.00,meteohub,2013-03-26 19:31:00,
2013-03-26 14:37:00,54.7,25.3,30.39,NNW,344,5.0,9.0,32,0.00,,,0.00,meteohub,2013-03-26 19:37:00,
2013-03-26 14:42:00,55.2,27.3,30.39,NE,44,1.0,9.0,34,0.00,,,0.00,meteohub,2013-03-26 19:42:00,
2013-03-26 14:47:00,54.9,24.8,30.38,NW,323,1.0,9.0,31,0.00,,,0.00,meteohub,2013-03-26 19:47:00,
2013-03-26 14:52:00,55.0,29.3,30.38,North,0,3.0,9.0,37,0.00,,,0.00,meteohub,2013-03-26 19:52:00,
2013-03-26 14:58:00,55.9,25.0,30.38,NNW,332,1.0,9.0,30,0.00,,,0.00,meteohub,2013-03-26 19:58:00,
2013-03-26 15:03:00,57.2,31.8,30.38,SW,216,0.0,9.0,38,0.00,,,0.00,meteohub,2013-03-26 20:03:00,
2013-03-26 15:08:00,57.4,28.6,30.37,NW,323,3.0,9.0,33,0.00,,,0.00,meteohub,2013-03-26 20:08:00,
2013-03-26 15:13:00,57.6,27.9,30.37,WNW,296,2.0,9.0,32,0.00,,,0.00,meteohub,2013-03-26 20:13:00,
2013-03-26 15:19:00,56.7,27.9,30.37,West,281,3.0,9.0,33,0.00,,,0.00,meteohub,2013-03-26 20:19:00,
2013-03-26 15:24:00,56.5,24.6,30.37,North,5,0.0,9.0,29,0.00,,,0.00,meteohub,2013-03-26 20:24:00,
2013-03-26 15:29:00,56.5,27.0,30.36,North,0,1.0,9.0,32,0.00,,,0.00,meteohub,2013-03-26 20:29:00,
2013-03-26 15:34:00,55.6,24.6,30.36,East,85,0.0,9.0,30,0.00,,,0.00,meteohub,2013-03-26 20:34:00,
2013-03-26 15:39:00,57.4,28.6,30.36,NNW,344,2.0,9.0,33,0.00,,,0.00,meteohub,2013-03-26 20:39:00,
2013-03-26 15:44:00,57.2,29.1,30.35,NNW,327,2.0,10.0,34,0.00,,,0.00,meteohub,2013-03-26 20:44:00,
2013-03-26 15:49:00,57.4,28.6,30.35,West,280,4.0,10.0,33,0.00,,,0.00,meteohub,2013-03-26 20:49:00,
2013-03-26 15:55:00,56.8,25.0,30.35,North,0,0.0,10.0,29,0.00,,,0.00,meteohub,2013-03-26 20:55:00,
2013-03-26 16:00:00,55.8,27.9,30.34,North,0,0.0,10.0,34,0.00,,,0.00,meteohub,2013-03-26 21:00:00,
2013-03-26 16:05:00,57.4,28.6,30.34,WNW,296,1.0,10.0,33,0.00,,,0.00,meteohub,2013-03-26 21:05:00,
2013-03-26 16:11:00,57.4,26.2,30.34,NW,315,6.0,10.0,30,0.00,,,0.00,meteohub,2013-03-26 21:11:00,
2013-03-26 16:16:00,57.4,26.2,30.34,NE,37,0.0,10.0,30,0.00,,,0.00,meteohub,2013-03-26 21:16:00,
2013-03-26 16:21:00,58.1,28.4,30.34,WNW,292,4.0,10.0,32,0.00,,,0.00,meteohub,2013-03-26 21:21:00,
2013-03-26 16:27:00,57.7,29.5,30.33,West,269,1.0,9.0,34,0.00,,,0.00,meteohub,2013-03-26 21:27:00,
2013-03-26 16:32:00,56.7,24.8,30.33,SSE,148,1.0,9.0,29,0.00,,,0.00,meteohub,2013-03-26 21:32:00,
2013-03-26 16:37:00,57.0,25.9,30.32,East,97,0.0,9.0,30,0.00,,,0.00,meteohub,2013-03-26 21:37:00,
2013-03-26 16:42:00,56.8,24.1,30.32,WNW,300,3.0,9.0,28,0.00,,,0.00,meteohub,2013-03-26 21:42:00,
2013-03-26 16:47:00,56.7,26.4,30.32,ENE,68,0.0,9.0,31,0.00,,,0.00,meteohub,2013-03-26 21:47:00,
2013-03-26 16:52:00,56.8,25.0,30.32,West,270,0.0,9.0,29,0.00,,,0.00,meteohub,2013-03-26 21:52:00,
2013-03-26 16:57:00,57.0,27.5,30.32,WSW,239,0.0,9.0,32,0.00,,,0.00,meteohub,2013-03-26 21:57:00,
2013-03-26 17:03:00,57.6,26.4,30.31,NNW,336,1.0,5.0,30,0.00,,,0.00,meteohub,2013-03-26 22:03:00,
2013-03-26 17:08:00,57.2,25.2,30.31,NE,34,3.0,5.0,29,0.00,,,0.00,meteohub,2013-03-26 22:08:00,
2013-03-26 17:13:00,57.4,26.2,30.31,ENE,62,0.0,5.0,30,0.00,,,0.00,meteohub,2013-03-26 22:13:00,
2013-03-26 17:19:00,57.6,24.6,30.31,NW,325,0.0,5.0,28,0.00,,,0.00,meteohub,2013-03-26 22:19:00,
2013-03-26 17:24:00,56.8,25.7,30.30,NW,318,1.0,5.0,30,0.00,,,0.00,meteohub,2013-03-26 22:24:00,
2013-03-26 17:29:00,57.4,27.7,30.30,East,82,2.0,5.0,32,0.00,,,0.00,meteohub,2013-03-26 22:29:00,
2013-03-26 17:35:00,57.0,25.9,30.30,NE,52,3.0,5.0,30,0.00,,,0.00,meteohub,2013-03-26 22:35:00,
2013-03-26 17:40:00,56.8,28.0,30.30,ENE,65,1.0,5.0,33,0.00,,,0.00,meteohub,2013-03-26 22:40:00,
2013-03-26 17:45:00,56.7,26.4,30.30,ENE,68,1.0,7.0,31,0.00,,,0.00,meteohub,2013-03-26 22:45:00,
2013-03-26 17:50:00,56.8,25.7,30.30,NNE,24,2.0,7.0,30,0.00,,,0.00,meteohub,2013-03-26 22:50:00,
2013-03-26 17:56:00,56.5,26.2,30.30,ENE,61,2.0,7.0,31,0.00,,,0.00,meteohub,2013-03-26 22:56:00,
2013-03-26 18:01:00,56.7,25.5,30.30,NE,55,0.0,7.0,30,0.00,,,0.00,meteohub,2013-03-26 23:01:00,
2013-03-26 18:06:00,56.5,26.2,30.30,NNW,346,1.0,7.0,31,0.00,,,0.00,meteohub,2013-03-26 23:06:00,
2013-03-26 18:12:00,56.1,28.0,30.30,SE,146,3.0,7.0,34,0.00,,,0.00,meteohub,2013-03-26 23:12:00,
2013-03-26 18:17:00,55.9,28.0,30.30,South,180,2.0,7.0,34,0.00,,,0.00,meteohub,2013-03-26 23:17:00,
2013-03-26 18:22:00,55.8,26.4,30.30,SE,125,1.0,7.0,32,0.00,,,0.00,meteohub,2013-03-26 23:22:00,
2013-03-26 18:27:00,55.8,27.1,30.30,SE,128,0.0,7.0,33,0.00,,,0.00,meteohub,2013-03-26 23:27:00,
2013-03-26 18:32:00,55.8,27.1,30.30,NE,55,0.0,6.0,33,0.00,,,0.00,meteohub,2013-03-26 23:32:00,
2013-03-26 18:38:00,55.9,26.4,30.30,ENE,73,3.0,6.0,32,0.00,,,0.00,meteohub,2013-03-26 23:38:00,
2013-03-26 18:43:00,55.8,27.1,30.30,East,90,0.0,6.0,33,0.00,,,0.00,meteohub,2013-03-26 23:43:00,
2013-03-26 18:49:00,55.9,26.4,30.30,East,91,5.0,6.0,32,0.00,,,0.00,meteohub,2013-03-26 23:49:00,
2013-03-26 18:54:00,55.8,26.4,30.30,East,80,5.0,6.0,32,0.00,,,0.00,meteohub,2013-03-26 23:54:00,
2013-03-26 18:59:00,55.2,25.9,30.30,ESE,104,0.0,6.0,32,0.00,,,0.00,meteohub,2013-03-26 23:59:00,
2013-03-26 19:04:00,55.0,26.4,30.30,East,96,0.0,6.0,33,0.00,,,0.00,meteohub,2013-03-27 00:04:00,
2013-03-26 19:10:00,55.0,26.4,30.30,ENE,59,4.0,6.0,33,0.00,,,0.00,meteohub,2013-03-27 00:10:00,
2013-03-26 19:15:00,54.9,26.2,30.30,East,88,1.0,6.0,33,0.00,,,0.00,meteohub,2013-03-27 00:15:00,
2013-03-26 19:20:00,54.5,26.1,30.30,ENE,65,1.0,6.0,33,0.00,,,0.00,meteohub,2013-03-27 00:20:00,
2013-03-26 19:26:00,54.1,26.4,30.30,East,85,1.0,6.0,34,0.00,,,0.00,meteohub,2013-03-27 00:26:00,
2013-03-26 19:31:00,54.0,26.2,30.30,East,82,1.0,6.0,34,0.00,,,0.00,meteohub,2013-03-27 00:31:00,
2013-03-26 19:36:00,53.8,26.1,30.30,East,85,0.0,6.0,34,0.00,,,0.00,meteohub,2013-03-27 00:36:00,
2013-03-26 19:42:00,53.4,25.7,30.30,East,85,0.0,6.0,34,0.00,,,0.00,meteohub,2013-03-27 00:42:00,
2013-03-26 19:47:00,52.9,25.9,30.30,ESE,104,1.0,6.0,35,0.00,,,0.00,meteohub,2013-03-27 00:47:00,
2013-03-26 19:52:00,52.7,26.4,30.30,ESE,104,0.0,6.0,36,0.00,,,0.00,meteohub,2013-03-27 00:52:00,
2013-03-26 19:57:00,52.2,26.1,30.30,ESE,104,0.0,6.0,36,0.00,,,0.00,meteohub,2013-03-27 00:57:00,
2013-03-26 20:02:00,51.4,26.6,30.30,ESE,104,0.0,4.0,38,0.00,,,0.00,meteohub,2013-03-27 01:02:00,
2013-03-26 20:07:00,51.3,26.6,30.30,ESE,104,0.0,4.0,38,0.00,,,0.00,meteohub,2013-03-27 01:07:00,
2013-03-26 20:13:00,51.3,26.6,30.30,ESE,104,0.0,4.0,38,0.00,,,0.00,meteohub,2013-03-27 01:13:00,
2013-03-26 20:18:00,50.7,27.3,30.29,ESE,104,0.0,4.0,40,0.00,,,0.00,meteohub,2013-03-27 01:18:00,
2013-03-26 20:23:00,50.5,27.1,30.29,ESE,104,0.0,4.0,40,0.00,,,0.00,meteohub,2013-03-27 01:23:00,
2013-03-26 20:28:00,50.5,27.1,30.29,ESE,104,0.0,4.0,40,0.00,,,0.00,meteohub,2013-03-27 01:28:00,
2013-03-26 20:34:00,50.4,27.5,30.29,ESE,104,0.0,4.0,41,0.00,,,0.00,meteohub,2013-03-27 01:34:00,
2013-03-26 20:39:00,50.0,27.9,30.29,ESE,104,0.0,4.0,42,0.00,,,0.00,meteohub,2013-03-27 01:39:00,
2013-03-26 20:44:00,49.3,28.2,30.29,ESE,104,0.0,2.0,44,0.00,,,0.00,meteohub,2013-03-27 01:44:00,
2013-03-26 20:50:00,48.7,28.4,30.29,ESE,104,0.0,2.0,45,0.00,,,0.00,meteohub,2013-03-27 01:50:00,
2013-03-26 20:55:00,48.6,28.2,30.29,ESE,104,2.0,2.0,45,0.00,,,0.00,meteohub,2013-03-27 01:55:00,
2013-03-26 21:00:00,48.6,28.8,30.29,ESE,104,1.0,2.0,46,0.00,,,0.00,meteohub,2013-03-27 02:00:00,
2013-03-26 21:05:00,48.6,28.8,30.29,ESE,104,0.0,2.0,46,0.00,,,0.00,meteohub,2013-03-27 02:05:00,
2013-03-26 21:10:00,48.6,28.8,30.29,ESE,104,0.0,2.0,46,0.00,,,0.00,meteohub,2013-03-27 02:10:00,
2013-03-26 21:15:00,48.4,29.1,30.29,ESE,104,0.0,2.0,47,0.00,,,0.00,meteohub,2013-03-27 02:15:00,
2013-03-26 21:21:00,48.0,29.3,30.30,ESE,105,1.0,2.0,48,0.00,,,0.00,meteohub,2013-03-27 02:21:00,
2013-03-26 21:26:00,47.8,29.7,30.30,ESE,105,1.0,3.0,49,0.00,,,0.00,meteohub,2013-03-27 02:26:00,
2013-03-26 21:31:00,47.8,29.7,30.30,ESE,105,2.0,3.0,49,0.00,,,0.00,meteohub,2013-03-27 02:31:00,
2013-03-26 21:37:00,47.8,29.1,30.30,ESE,105,2.0,3.0,48,0.00,,,0.00,meteohub,2013-03-27 02:37:00,
2013-03-26 21:42:00,47.7,28.9,30.30,ESE,105,0.0,3.0,48,0.00,,,0.00,meteohub,2013-03-27 02:42:00,
2013-03-26 21:47:00,47.5,29.3,30.30,ESE,105,1.0,3.0,49,0.00,,,0.00,meteohub,2013-03-27 02:47:00,
2013-03-26 21:52:00,47.1,28.9,30.30,ESE,108,1.0,3.0,49,0.00,,,0.00,meteohub,2013-03-27 02:52:00,
2013-03-26 21:57:00,46.9,29.3,30.30,ESE,110,2.0,3.0,50,0.00,,,0.00,meteohub,2013-03-27 02:57:00,
2013-03-26 22:02:00,46.9,29.8,30.30,ESE,113,2.0,3.0,51,0.00,,,0.00,meteohub,2013-03-27 03:02:00,
2013-03-26 22:07:00,46.9,29.3,30.30,ESE,119,0.0,3.0,50,0.00,,,0.00,meteohub,2013-03-27 03:07:00,
2013-03-26 22:12:00,47.1,29.5,30.30,ESE,111,1.0,3.0,50,0.00,,,0.00,meteohub,2013-03-27 03:12:00,
2013-03-26 22:17:00,47.5,29.3,30.30,ESE,119,0.0,3.0,49,0.00,,,0.00,meteohub,2013-03-27 03:17:00,
2013-03-26 22:22:00,47.5,28.8,30.30,SE,125,2.0,3.0,48,0.00,,,0.00,meteohub,2013-03-27 03:22:00,
2013-03-26 22:27:00,47.3,28.6,30.30,ESE,119,3.0,3.0,48,0.00,,,0.00,meteohub,2013-03-27 03:27:00,
2013-03-26 22:32:00,47.3,28.6,30.30,ESE,105,2.0,3.0,48,0.00,,,0.00,meteohub,2013-03-27 03:32:00,
2013-03-26 22:37:00,47.7,28.9,30.31,SE,130,0.0,3.0,48,0.00,,,0.00,meteohub,2013-03-27 03:37:00,
2013-03-26 22:42:00,47.1,28.9,30.30,SE,130,0.0,3.0,49,0.00,,,0.00,meteohub,2013-03-27 03:42:00,
2013-03-26 22:47:00,46.9,29.3,30.30,SE,141,0.0,6.0,50,0.00,,,0.00,meteohub,2013-03-27 03:47:00,
2013-03-26 22:52:00,46.8,29.1,30.31,SE,126,0.0,6.0,50,0.00,,,0.00,meteohub,2013-03-27 03:52:00,
2013-03-26 22:57:00,46.6,30.4,30.31,SE,126,1.0,6.0,53,0.00,,,0.00,meteohub,2013-03-27 03:57:00,
2013-03-26 23:00:00,46.6,34.7,30.31,SE,139,0.0,6.0,63,0.00,,,0.00,meteohub,2013-03-27 04:00:00,
2013-03-26 23:01:00,46.6,33.4,30.31,SE,140,0.0,6.0,60,0.00,,,0.00,meteohub,2013-03-27 04:01:00,
2013-03-26 23:03:00,46.4,35.6,30.31,SE,136,0.0,6.0,66,0.00,,,0.00,meteohub,2013-03-27 04:03:00,
2013-03-26 23:09:00,46.0,32.0,30.31,SE,138,2.0,6.0,58,0.00,,,0.00,meteohub,2013-03-27 04:09:00,
2013-03-26 23:14:00,46.0,33.3,30.31,SE,142,0.0,6.0,61,0.00,,,0.00,meteohub,2013-03-27 04:14:00,
2013-03-26 23:20:00,45.7,30.9,30.31,SE,134,0.0,6.0,56,0.00,,,0.00,meteohub,2013-03-27 04:20:00,
2013-03-26 23:25:00,45.3,30.0,30.31,SE,137,0.0,4.0,55,0.00,,,0.00,meteohub,2013-03-27 04:25:00,
2013-03-26 23:30:00,45.5,29.8,30.31,SE,130,3.0,4.0,54,0.00,,,0.00,meteohub,2013-03-27 04:30:00,
2013-03-26 23:35:00,45.5,30.2,30.31,SE,136,0.0,4.0,55,0.00,,,0.00,meteohub,2013-03-27 04:35:00,
2013-03-26 23:40:00,45.1,30.4,30.31,SE,128,0.0,4.0,56,0.00,,,0.00,meteohub,2013-03-27 04:40:00,
2013-03-26 23:45:00,44.8,30.6,30.31,SE,137,1.0,4.0,57,0.00,,,0.00,meteohub,2013-03-27 04:45:00,
2013-03-26 23:50:00,44.6,30.7,30.31,SE,136,0.0,4.0,58,0.00,,,0.00,meteohub,2013-03-27 04:50:00,
2013-03-26 23:57:00,44.4,30.6,30.31,SE,138,2.0,4.0,58,0.00,,,0.00,meteohub,2013-03-27 04:57:00,